sensor_id;sensor_type;location;lat;lon;timestamp;P1;durP1;ratioP1;P2;durP2;ratioP2
81124;SDS011;72192;52.114;5.424;2024-03-17T00:01:02;5.70;;;2.55;;
81124;SDS011;72192;52.114;5.424;2024-03-17T00:03:34;8.02;;;2.50;;
81124;SDS011;72192;52.114;5.424;2024-03-17T00:06:01;9.23;;;2.67;;
81124;SDS011;72192;52.114;5.424;2024-03-17T00:08:27;9.45;;;2.70;;
81124;SDS011;72192;52.114;5.424;2024-03-17T00:10:53;9.32;;;3.78;;
81124;SDS011;72192;52.114;5.424;2024-03-17T00:13:23;9.43;;;4.32;;
81124;SDS011;72192;52.114;5.424;2024-03-17T00:15:49;9.60;;;3.72;;
81124;SDS011;72192;52.114;5.424;2024-03-17T00:18:22;9.98;;;3.65;;
81124;SDS011;72192;52.114;5.424;2024-03-17T00:20:54;6.72;;;4.00;;
81124;SDS011;72192;52.114;5.424;2024-03-17T00:23:20;9.05;;;4.00;;
81124;SDS011;72192;52.114;5.424;2024-03-17T00:25:47;15.05;;;4.25;;
81124;SDS011;72192;52.114;5.424;2024-03-17T00:28:13;7.43;;;2.92;;
81124;SDS011;72192;52.114;5.424;2024-03-17T00:30:54;7.47;;;2.97;;
81124;SDS011;72192;52.114;5.424;2024-03-17T00:33:20;9.65;;;3.50;;
81124;SDS011;72192;52.114;5.424;2024-03-17T00:35:46;5.85;;;2.80;;
81124;SDS011;72192;52.114;5.424;2024-03-17T00:38:12;5.70;;;2.60;;
81124;SDS011;72192;52.114;5.424;2024-03-17T00:40:38;8.73;;;3.47;;
81124;SDS011;72192;52.114;5.424;2024-03-17T00:43:06;9.38;;;3.00;;
81124;SDS011;72192;52.114;5.424;2024-03-17T00:45:32;9.00;;;2.92;;
81124;SDS011;72192;52.114;5.424;2024-03-17T00:47:58;10.10;;;3.45;;
81124;SDS011;72192;52.114;5.424;2024-03-17T00:50:25;7.38;;;3.30;;
81124;SDS011;72192;52.114;5.424;2024-03-17T00:52:50;10.43;;;4.07;;
81124;SDS011;72192;52.114;5.424;2024-03-17T00:55:16;9.63;;;4.57;;
81124;SDS011;72192;52.114;5.424;2024-03-17T00:57:42;12.80;;;4.57;;
81124;SDS011;72192;52.114;5.424;2024-03-17T01:00:10;15.18;;;5.60;;
81124;SDS011;72192;52.114;5.424;2024-03-17T01:02:37;10.35;;;3.97;;
81124;SDS011;72192;52.114;5.424;2024-03-17T01:05:05;7.97;;;3.22;;
81124;SDS011;72192;52.114;5.424;2024-03-17T01:07:31;8.10;;;3.50;;
81124;SDS011;72192;52.114;5.424;2024-03-17T01:09:58;8.45;;;2.78;;
81124;SDS011;72192;52.114;5.424;2024-03-17T01:12:25;9.18;;;3.00;;
81124;SDS011;72192;52.114;5.424;2024-03-17T01:14:55;10.35;;;3.35;;
81124;SDS011;72192;52.114;5.424;2024-03-17T01:17:20;5.50;;;2.60;;
81124;SDS011;72192;52.114;5.424;2024-03-17T01:19:47;7.80;;;3.20;;
81124;SDS011;72192;52.114;5.424;2024-03-17T01:22:13;8.55;;;3.53;;
81124;SDS011;72192;52.114;5.424;2024-03-17T01:24:39;12.75;;;3.45;;
81124;SDS011;72192;52.114;5.424;2024-03-17T01:27:11;6.63;;;3.33;;
81124;SDS011;72192;52.114;5.424;2024-03-17T01:29:39;9.45;;;5.07;;
81124;SDS011;72192;52.114;5.424;2024-03-17T01:32:06;9.13;;;4.28;;
81124;SDS011;72192;52.114;5.424;2024-03-17T01:34:32;11.45;;;3.50;;
81124;SDS011;72192;52.114;5.424;2024-03-17T01:37:01;8.95;;;3.30;;
81124;SDS011;72192;52.114;5.424;2024-03-17T01:39:27;6.88;;;3.55;;
81124;SDS011;72192;52.114;5.424;2024-03-17T01:41:53;7.30;;;3.83;;
81124;SDS011;72192;52.114;5.424;2024-03-17T01:44:22;7.55;;;3.22;;
81124;SDS011;72192;52.114;5.424;2024-03-17T01:46:51;5.28;;;2.58;;
81124;SDS011;72192;52.114;5.424;2024-03-17T01:49:18;13.98;;;4.47;;
81124;SDS011;72192;52.114;5.424;2024-03-17T01:51:50;10.70;;;3.92;;
81124;SDS011;72192;52.114;5.424;2024-03-17T01:54:17;9.32;;;4.45;;
81124;SDS011;72192;52.114;5.424;2024-03-17T01:56:44;11.13;;;4.47;;
81124;SDS011;72192;52.114;5.424;2024-03-17T01:59:17;10.88;;;4.40;;
81124;SDS011;72192;52.114;5.424;2024-03-17T02:01:49;10.85;;;4.30;;
81124;SDS011;72192;52.114;5.424;2024-03-17T02:04:15;10.90;;;4.90;;
81124;SDS011;72192;52.114;5.424;2024-03-17T02:06:43;7.63;;;3.22;;
81124;SDS011;72192;52.114;5.424;2024-03-17T02:09:09;9.00;;;4.13;;
81124;SDS011;72192;52.114;5.424;2024-03-17T02:11:38;13.63;;;4.18;;
81124;SDS011;72192;52.114;5.424;2024-03-17T02:14:05;9.95;;;5.25;;
81124;SDS011;72192;52.114;5.424;2024-03-17T02:16:37;10.13;;;3.88;;
81124;SDS011;72192;52.114;5.424;2024-03-17T02:19:03;7.07;;;2.65;;
81124;SDS011;72192;52.114;5.424;2024-03-17T02:21:29;8.15;;;4.25;;
81124;SDS011;72192;52.114;5.424;2024-03-17T02:23:55;9.55;;;4.00;;
81124;SDS011;72192;52.114;5.424;2024-03-17T02:26:21;7.38;;;4.63;;
81124;SDS011;72192;52.114;5.424;2024-03-17T02:28:50;8.70;;;3.65;;
81124;SDS011;72192;52.114;5.424;2024-03-17T02:31:17;9.00;;;4.28;;
81124;SDS011;72192;52.114;5.424;2024-03-17T02:33:43;8.93;;;4.45;;
81124;SDS011;72192;52.114;5.424;2024-03-17T02:36:11;11.25;;;4.93;;
81124;SDS011;72192;52.114;5.424;2024-03-17T02:38:38;8.63;;;4.15;;
81124;SDS011;72192;52.114;5.424;2024-03-17T02:41:24;8.55;;;4.70;;
81124;SDS011;72192;52.114;5.424;2024-03-17T02:43:51;10.65;;;5.30;;
81124;SDS011;72192;52.114;5.424;2024-03-17T02:46:17;14.05;;;5.63;;
81124;SDS011;72192;52.114;5.424;2024-03-17T02:48:45;13.05;;;5.43;;
81124;SDS011;72192;52.114;5.424;2024-03-17T02:51:18;11.40;;;5.25;;
81124;SDS011;72192;52.114;5.424;2024-03-17T02:53:47;14.55;;;5.78;;
81124;SDS011;72192;52.114;5.424;2024-03-17T02:58:48;11.60;;;5.70;;
81124;SDS011;72192;52.114;5.424;2024-03-17T03:01:17;10.93;;;5.82;;
81124;SDS011;72192;52.114;5.424;2024-03-17T03:09:16;13.32;;;6.50;;
81124;SDS011;72192;52.114;5.424;2024-03-17T03:11:50;13.43;;;5.97;;
81124;SDS011;72192;52.114;5.424;2024-03-17T03:14:19;10.48;;;5.93;;
81124;SDS011;72192;52.114;5.424;2024-03-17T03:16:46;13.35;;;6.05;;
81124;SDS011;72192;52.114;5.424;2024-03-17T03:19:15;14.50;;;6.13;;
81124;SDS011;72192;52.114;5.424;2024-03-17T03:21:41;10.23;;;5.47;;
81124;SDS011;72192;52.114;5.424;2024-03-17T03:24:07;15.00;;;5.97;;
81124;SDS011;72192;52.114;5.424;2024-03-17T03:26:36;11.45;;;6.43;;
81124;SDS011;72192;52.114;5.424;2024-03-17T03:29:05;14.45;;;6.60;;
81124;SDS011;72192;52.114;5.424;2024-03-17T03:31:32;13.70;;;5.97;;
81124;SDS011;72192;52.114;5.424;2024-03-17T03:34:01;13.60;;;6.68;;
81124;SDS011;72192;52.114;5.424;2024-03-17T03:36:29;12.32;;;6.13;;
81124;SDS011;72192;52.114;5.424;2024-03-17T03:38:55;11.02;;;6.10;;
81124;SDS011;72192;52.114;5.424;2024-03-17T03:41:22;10.35;;;6.18;;
81124;SDS011;72192;52.114;5.424;2024-03-17T03:43:56;13.00;;;6.40;;
81124;SDS011;72192;52.114;5.424;2024-03-17T03:46:22;11.20;;;6.00;;
81124;SDS011;72192;52.114;5.424;2024-03-17T03:48:50;13.80;;;5.82;;
81124;SDS011;72192;52.114;5.424;2024-03-17T03:51:16;12.50;;;6.53;;
81124;SDS011;72192;52.114;5.424;2024-03-17T03:53:42;11.48;;;6.15;;
81124;SDS011;72192;52.114;5.424;2024-03-17T03:56:08;10.80;;;5.95;;
81124;SDS011;72192;52.114;5.424;2024-03-17T03:58:35;12.82;;;6.43;;
81124;SDS011;72192;52.114;5.424;2024-03-17T04:01:09;11.38;;;6.25;;
81124;SDS011;72192;52.114;5.424;2024-03-17T04:03:46;12.18;;;5.90;;
81124;SDS011;72192;52.114;5.424;2024-03-17T04:06:14;11.63;;;5.82;;
81124;SDS011;72192;52.114;5.424;2024-03-17T04:08:44;13.88;;;6.05;;
81124;SDS011;72192;52.114;5.424;2024-03-17T04:11:10;11.55;;;5.95;;
81124;SDS011;72192;52.114;5.424;2024-03-17T04:13:39;10.75;;;5.60;;
81124;SDS011;72192;52.114;5.424;2024-03-17T04:16:11;10.38;;;5.88;;
81124;SDS011;72192;52.114;5.424;2024-03-17T04:18:37;10.90;;;5.75;;
81124;SDS011;72192;52.114;5.424;2024-03-17T04:21:07;14.80;;;6.82;;
81124;SDS011;72192;52.114;5.424;2024-03-17T04:23:33;11.10;;;5.90;;
81124;SDS011;72192;52.114;5.424;2024-03-17T04:25:59;11.75;;;5.65;;
81124;SDS011;72192;52.114;5.424;2024-03-17T04:28:28;13.07;;;6.35;;
81124;SDS011;72192;52.114;5.424;2024-03-17T04:31:06;10.95;;;6.10;;
81124;SDS011;72192;52.114;5.424;2024-03-17T04:33:32;10.65;;;5.80;;
81124;SDS011;72192;52.114;5.424;2024-03-17T04:35:59;13.75;;;6.15;;
81124;SDS011;72192;52.114;5.424;2024-03-17T04:38:27;10.65;;;6.00;;
81124;SDS011;72192;52.114;5.424;2024-03-17T04:43:34;14.38;;;6.55;;
81124;SDS011;72192;52.114;5.424;2024-03-17T04:46:18;13.07;;;6.72;;
81124;SDS011;72192;52.114;5.424;2024-03-17T04:48:45;12.20;;;6.65;;
81124;SDS011;72192;52.114;5.424;2024-03-17T04:51:16;11.95;;;5.75;;
81124;SDS011;72192;52.114;5.424;2024-03-17T04:53:42;12.13;;;6.65;;
81124;SDS011;72192;52.114;5.424;2024-03-17T04:56:07;10.98;;;5.90;;
81124;SDS011;72192;52.114;5.424;2024-03-17T04:58:34;12.57;;;6.45;;
81124;SDS011;72192;52.114;5.424;2024-03-17T05:01:07;11.98;;;6.60;;
81124;SDS011;72192;52.114;5.424;2024-03-17T05:03:38;12.05;;;5.63;;
81124;SDS011;72192;52.114;5.424;2024-03-17T05:06:13;12.02;;;5.72;;
81124;SDS011;72192;52.114;5.424;2024-03-17T05:08:40;13.30;;;6.53;;
81124;SDS011;72192;52.114;5.424;2024-03-17T05:11:07;12.35;;;6.30;;
81124;SDS011;72192;52.114;5.424;2024-03-17T05:13:33;11.60;;;6.45;;
81124;SDS011;72192;52.114;5.424;2024-03-17T05:16:00;12.90;;;6.50;;
81124;SDS011;72192;52.114;5.424;2024-03-17T05:18:27;14.75;;;6.15;;
81124;SDS011;72192;52.114;5.424;2024-03-17T05:23:28;11.48;;;5.88;;
81124;SDS011;72192;52.114;5.424;2024-03-17T05:26:01;12.82;;;6.28;;
81124;SDS011;72192;52.114;5.424;2024-03-17T05:28:30;16.10;;;7.25;;
81124;SDS011;72192;52.114;5.424;2024-03-17T05:30:56;12.65;;;6.55;;
81124;SDS011;72192;52.114;5.424;2024-03-17T05:33:22;11.65;;;5.88;;
81124;SDS011;72192;52.114;5.424;2024-03-17T05:38:28;12.88;;;7.20;;
81124;SDS011;72192;52.114;5.424;2024-03-17T05:41:02;12.75;;;7.03;;
81124;SDS011;72192;52.114;5.424;2024-03-17T05:43:33;12.55;;;7.18;;
81124;SDS011;72192;52.114;5.424;2024-03-17T05:46:05;13.30;;;7.10;;
81124;SDS011;72192;52.114;5.424;2024-03-17T05:48:33;12.73;;;6.95;;
81124;SDS011;72192;52.114;5.424;2024-03-17T05:51:04;12.50;;;7.22;;
81124;SDS011;72192;52.114;5.424;2024-03-17T05:53:31;13.48;;;7.78;;
81124;SDS011;72192;52.114;5.424;2024-03-17T05:56:00;13.13;;;7.32;;
81124;SDS011;72192;52.114;5.424;2024-03-17T05:58:27;12.98;;;7.05;;
81124;SDS011;72192;52.114;5.424;2024-03-17T06:00:54;12.98;;;6.45;;
81124;SDS011;72192;52.114;5.424;2024-03-17T06:03:20;13.50;;;7.15;;
81124;SDS011;72192;52.114;5.424;2024-03-17T06:05:47;14.20;;;7.70;;
81124;SDS011;72192;52.114;5.424;2024-03-17T06:08:22;11.50;;;7.43;;
81124;SDS011;72192;52.114;5.424;2024-03-17T06:10:48;13.60;;;7.68;;
81124;SDS011;72192;52.114;5.424;2024-03-17T06:13:16;12.27;;;6.63;;
81124;SDS011;72192;52.114;5.424;2024-03-17T06:15:45;14.18;;;7.05;;
81124;SDS011;72192;52.114;5.424;2024-03-17T06:18:14;12.82;;;7.10;;
81124;SDS011;72192;52.114;5.424;2024-03-17T06:20:43;12.25;;;7.22;;
81124;SDS011;72192;52.114;5.424;2024-03-17T06:23:10;12.98;;;6.38;;
81124;SDS011;72192;52.114;5.424;2024-03-17T06:25:44;11.05;;;6.30;;
81124;SDS011;72192;52.114;5.424;2024-03-17T06:28:15;12.82;;;6.72;;
81124;SDS011;72192;52.114;5.424;2024-03-17T06:31:45;16.73;;;7.32;;
81124;SDS011;72192;52.114;5.424;2024-03-17T06:34:17;14.27;;;7.32;;
81124;SDS011;72192;52.114;5.424;2024-03-17T06:36:49;13.82;;;7.05;;
81124;SDS011;72192;52.114;5.424;2024-03-17T06:39:18;13.48;;;6.65;;
81124;SDS011;72192;52.114;5.424;2024-03-17T06:41:46;13.60;;;7.40;;
81124;SDS011;72192;52.114;5.424;2024-03-17T06:44:12;14.63;;;7.03;;
81124;SDS011;72192;52.114;5.424;2024-03-17T06:46:38;12.07;;;6.72;;
81124;SDS011;72192;52.114;5.424;2024-03-17T06:49:04;13.95;;;7.15;;
81124;SDS011;72192;52.114;5.424;2024-03-17T06:51:30;12.85;;;6.72;;
81124;SDS011;72192;52.114;5.424;2024-03-17T06:53:55;9.90;;;5.68;;
81124;SDS011;72192;52.114;5.424;2024-03-17T06:56:22;12.95;;;6.78;;
81124;SDS011;72192;52.114;5.424;2024-03-17T06:58:49;11.65;;;6.60;;
81124;SDS011;72192;52.114;5.424;2024-03-17T07:01:20;11.75;;;7.03;;
81124;SDS011;72192;52.114;5.424;2024-03-17T07:03:49;14.40;;;6.78;;
81124;SDS011;72192;52.114;5.424;2024-03-17T07:06:17;16.23;;;7.38;;
81124;SDS011;72192;52.114;5.424;2024-03-17T07:08:42;14.35;;;6.70;;
81124;SDS011;72192;52.114;5.424;2024-03-17T07:11:08;12.05;;;6.20;;
81124;SDS011;72192;52.114;5.424;2024-03-17T07:13:37;12.32;;;7.05;;
81124;SDS011;72192;52.114;5.424;2024-03-17T07:16:04;12.77;;;6.90;;
81124;SDS011;72192;52.114;5.424;2024-03-17T07:18:31;10.80;;;6.35;;
81124;SDS011;72192;52.114;5.424;2024-03-17T07:20:59;12.73;;;6.78;;
81124;SDS011;72192;52.114;5.424;2024-03-17T07:23:27;11.48;;;6.25;;
81124;SDS011;72192;52.114;5.424;2024-03-17T07:25:55;14.18;;;6.80;;
81124;SDS011;72192;52.114;5.424;2024-03-17T07:28:24;11.73;;;6.97;;
81124;SDS011;72192;52.114;5.424;2024-03-17T07:30:56;12.13;;;6.05;;
81124;SDS011;72192;52.114;5.424;2024-03-17T07:33:26;11.50;;;6.25;;
81124;SDS011;72192;52.114;5.424;2024-03-17T07:35:52;15.52;;;6.07;;
81124;SDS011;72192;52.114;5.424;2024-03-17T07:38:22;12.77;;;6.20;;
81124;SDS011;72192;52.114;5.424;2024-03-17T07:43:42;11.82;;;6.05;;
81124;SDS011;72192;52.114;5.424;2024-03-17T07:46:11;11.38;;;6.00;;
81124;SDS011;72192;52.114;5.424;2024-03-17T07:48:42;12.48;;;6.25;;
81124;SDS011;72192;52.114;5.424;2024-03-17T07:51:11;11.65;;;6.10;;
81124;SDS011;72192;52.114;5.424;2024-03-17T07:53:42;11.65;;;6.70;;
81124;SDS011;72192;52.114;5.424;2024-03-17T07:56:18;10.70;;;5.85;;
81124;SDS011;72192;52.114;5.424;2024-03-17T07:58:51;13.38;;;5.90;;
81124;SDS011;72192;52.114;5.424;2024-03-17T08:01:17;11.43;;;6.13;;
81124;SDS011;72192;52.114;5.424;2024-03-17T08:03:46;11.00;;;6.70;;
81124;SDS011;72192;52.114;5.424;2024-03-17T08:06:19;9.25;;;5.40;;
81124;SDS011;72192;52.114;5.424;2024-03-17T08:08:46;10.43;;;5.45;;
81124;SDS011;72192;52.114;5.424;2024-03-17T08:11:14;10.48;;;6.40;;
81124;SDS011;72192;52.114;5.424;2024-03-17T08:13:45;11.23;;;6.20;;
81124;SDS011;72192;52.114;5.424;2024-03-17T08:16:11;11.52;;;5.80;;
81124;SDS011;72192;52.114;5.424;2024-03-17T08:18:39;10.77;;;6.30;;
81124;SDS011;72192;52.114;5.424;2024-03-17T08:21:05;9.60;;;5.43;;
81124;SDS011;72192;52.114;5.424;2024-03-17T08:23:32;10.68;;;5.35;;
81124;SDS011;72192;52.114;5.424;2024-03-17T08:26:04;9.48;;;5.80;;
81124;SDS011;72192;52.114;5.424;2024-03-17T08:28:30;11.40;;;6.22;;
81124;SDS011;72192;52.114;5.424;2024-03-17T08:30:57;10.63;;;5.78;;
81124;SDS011;72192;52.114;5.424;2024-03-17T08:36:08;10.85;;;5.57;;
81124;SDS011;72192;52.114;5.424;2024-03-17T08:38:41;11.65;;;6.30;;
81124;SDS011;72192;52.114;5.424;2024-03-17T08:41:08;12.52;;;6.32;;
81124;SDS011;72192;52.114;5.424;2024-03-17T08:43:41;11.65;;;6.55;;
81124;SDS011;72192;52.114;5.424;2024-03-17T08:46:10;10.35;;;5.72;;
81124;SDS011;72192;52.114;5.424;2024-03-17T08:48:40;11.35;;;6.45;;
81124;SDS011;72192;52.114;5.424;2024-03-17T08:51:17;9.45;;;5.90;;
81124;SDS011;72192;52.114;5.424;2024-03-17T08:53:48;10.65;;;5.65;;
81124;SDS011;72192;52.114;5.424;2024-03-17T08:56:17;9.90;;;5.53;;
81124;SDS011;72192;52.114;5.424;2024-03-17T08:58:43;9.68;;;5.57;;
81124;SDS011;72192;52.114;5.424;2024-03-17T09:01:21;10.38;;;6.18;;
81124;SDS011;72192;52.114;5.424;2024-03-17T09:03:47;10.57;;;5.82;;
81124;SDS011;72192;52.114;5.424;2024-03-17T09:08:55;9.98;;;6.43;;
81124;SDS011;72192;52.114;5.424;2024-03-17T09:11:21;10.98;;;6.43;;
81124;SDS011;72192;52.114;5.424;2024-03-17T09:13:58;12.95;;;6.40;;
81124;SDS011;72192;52.114;5.424;2024-03-17T09:16:24;12.10;;;6.57;;
81124;SDS011;72192;52.114;5.424;2024-03-17T09:18:51;14.85;;;7.07;;
81124;SDS011;72192;52.114;5.424;2024-03-17T09:21:18;10.95;;;6.15;;
81124;SDS011;72192;52.114;5.424;2024-03-17T09:23:44;11.45;;;6.15;;
81124;SDS011;72192;52.114;5.424;2024-03-17T09:26:10;10.13;;;5.90;;
81124;SDS011;72192;52.114;5.424;2024-03-17T09:28:41;9.63;;;5.93;;
81124;SDS011;72192;52.114;5.424;2024-03-17T09:31:10;11.90;;;6.03;;
81124;SDS011;72192;52.114;5.424;2024-03-17T09:33:39;12.95;;;5.68;;
81124;SDS011;72192;52.114;5.424;2024-03-17T09:36:06;9.75;;;5.63;;
81124;SDS011;72192;52.114;5.424;2024-03-17T09:38:43;13.45;;;6.40;;
81124;SDS011;72192;52.114;5.424;2024-03-17T09:41:25;8.98;;;5.43;;
81124;SDS011;72192;52.114;5.424;2024-03-17T09:43:55;11.30;;;5.97;;
81124;SDS011;72192;52.114;5.424;2024-03-17T09:46:25;9.95;;;5.50;;
81124;SDS011;72192;52.114;5.424;2024-03-17T09:48:55;11.65;;;5.40;;
81124;SDS011;72192;52.114;5.424;2024-03-17T09:54:17;9.20;;;5.30;;
81124;SDS011;72192;52.114;5.424;2024-03-17T09:56:45;11.35;;;6.82;;
81124;SDS011;72192;52.114;5.424;2024-03-17T09:59:22;10.13;;;5.38;;
81124;SDS011;72192;52.114;5.424;2024-03-17T10:01:48;11.45;;;6.03;;
81124;SDS011;72192;52.114;5.424;2024-03-17T10:04:25;10.23;;;5.70;;
81124;SDS011;72192;52.114;5.424;2024-03-17T10:06:58;10.77;;;5.50;;
81124;SDS011;72192;52.114;5.424;2024-03-17T10:09:24;10.40;;;5.53;;
81124;SDS011;72192;52.114;5.424;2024-03-17T10:11:52;8.57;;;5.15;;
81124;SDS011;72192;52.114;5.424;2024-03-17T10:14:17;11.85;;;5.63;;
81124;SDS011;72192;52.114;5.424;2024-03-17T10:16:43;9.88;;;5.13;;
81124;SDS011;72192;52.114;5.424;2024-03-17T10:21:47;9.50;;;5.47;;
81124;SDS011;72192;52.114;5.424;2024-03-17T10:24:21;11.65;;;5.43;;
81124;SDS011;72192;52.114;5.424;2024-03-17T10:26:55;11.00;;;5.55;;
81124;SDS011;72192;52.114;5.424;2024-03-17T10:29:27;12.70;;;5.50;;
81124;SDS011;72192;52.114;5.424;2024-03-17T10:31:57;11.23;;;6.15;;
81124;SDS011;72192;52.114;5.424;2024-03-17T10:34:42;9.52;;;5.10;;
81124;SDS011;72192;52.114;5.424;2024-03-17T10:37:09;10.45;;;6.03;;
81124;SDS011;72192;52.114;5.424;2024-03-17T10:39:40;10.77;;;5.22;;
81124;SDS011;72192;52.114;5.424;2024-03-17T10:42:10;11.57;;;5.65;;
81124;SDS011;72192;52.114;5.424;2024-03-17T10:44:40;8.60;;;5.18;;
81124;SDS011;72192;52.114;5.424;2024-03-17T10:47:28;9.27;;;4.93;;
81124;SDS011;72192;52.114;5.424;2024-03-17T10:49:55;11.48;;;5.65;;
81124;SDS011;72192;52.114;5.424;2024-03-17T10:52:22;10.95;;;5.70;;
81124;SDS011;72192;52.114;5.424;2024-03-17T10:54:54;10.68;;;5.80;;
81124;SDS011;72192;52.114;5.424;2024-03-17T11:00:03;10.52;;;5.88;;
81124;SDS011;72192;52.114;5.424;2024-03-17T11:02:33;11.93;;;6.20;;
81124;SDS011;72192;52.114;5.424;2024-03-17T11:05:11;10.48;;;6.10;;
81124;SDS011;72192;52.114;5.424;2024-03-17T11:08:14;8.93;;;5.32;;
81124;SDS011;72192;52.114;5.424;2024-03-17T11:10:49;10.65;;;5.35;;
81124;SDS011;72192;52.114;5.424;2024-03-17T11:13:27;11.30;;;5.75;;
81124;SDS011;72192;52.114;5.424;2024-03-17T11:16:00;9.95;;;4.90;;
81124;SDS011;72192;52.114;5.424;2024-03-17T11:18:36;10.57;;;5.13;;
81124;SDS011;72192;52.114;5.424;2024-03-17T11:21:18;8.02;;;5.13;;
81124;SDS011;72192;52.114;5.424;2024-03-17T11:23:56;9.57;;;5.80;;
81124;SDS011;72192;52.114;5.424;2024-03-17T11:26:29;8.80;;;4.68;;
81124;SDS011;72192;52.114;5.424;2024-03-17T11:29:01;11.10;;;5.60;;
81124;SDS011;72192;52.114;5.424;2024-03-17T11:37:06;9.18;;;5.75;;
81124;SDS011;72192;52.114;5.424;2024-03-17T11:39:46;9.70;;;5.90;;
81124;SDS011;72192;52.114;5.424;2024-03-17T11:42:14;10.35;;;5.28;;
81124;SDS011;72192;52.114;5.424;2024-03-17T11:44:43;7.60;;;4.68;;
81124;SDS011;72192;52.114;5.424;2024-03-17T11:47:21;11.00;;;5.70;;
81124;SDS011;72192;52.114;5.424;2024-03-17T11:49:50;9.73;;;5.10;;
81124;SDS011;72192;52.114;5.424;2024-03-17T11:52:16;9.68;;;5.80;;
81124;SDS011;72192;52.114;5.424;2024-03-17T11:54:44;11.13;;;5.43;;
81124;SDS011;72192;52.114;5.424;2024-03-17T11:57:22;10.63;;;5.68;;
81124;SDS011;72192;52.114;5.424;2024-03-17T11:59:50;11.32;;;5.53;;
81124;SDS011;72192;52.114;5.424;2024-03-17T12:05:06;10.38;;;6.18;;
81124;SDS011;72192;52.114;5.424;2024-03-17T12:07:33;10.63;;;5.35;;
81124;SDS011;72192;52.114;5.424;2024-03-17T12:10:10;11.55;;;5.40;;
81124;SDS011;72192;52.114;5.424;2024-03-17T12:12:39;12.38;;;5.72;;
81124;SDS011;72192;52.114;5.424;2024-03-17T12:15:15;10.07;;;4.90;;
81124;SDS011;72192;52.114;5.424;2024-03-17T12:17:51;11.30;;;5.20;;
81124;SDS011;72192;52.114;5.424;2024-03-17T12:20:19;10.95;;;5.60;;
81124;SDS011;72192;52.114;5.424;2024-03-17T12:22:47;10.00;;;5.95;;
81124;SDS011;72192;52.114;5.424;2024-03-17T12:25:17;8.15;;;4.60;;
81124;SDS011;72192;52.114;5.424;2024-03-17T12:27:46;13.07;;;5.20;;
81124;SDS011;72192;52.114;5.424;2024-03-17T12:30:14;11.10;;;4.95;;
81124;SDS011;72192;52.114;5.424;2024-03-17T12:32:42;13.10;;;6.05;;
81124;SDS011;72192;52.114;5.424;2024-03-17T12:35:14;10.90;;;4.95;;
81124;SDS011;72192;52.114;5.424;2024-03-17T12:37:47;9.73;;;4.93;;
81124;SDS011;72192;52.114;5.424;2024-03-17T12:40:19;12.60;;;5.05;;
81124;SDS011;72192;52.114;5.424;2024-03-17T12:42:49;12.77;;;6.40;;
81124;SDS011;72192;52.114;5.424;2024-03-17T12:45:19;12.65;;;5.18;;
81124;SDS011;72192;52.114;5.424;2024-03-17T12:49:02;9.07;;;5.13;;
81124;SDS011;72192;52.114;5.424;2024-03-17T12:51:33;10.95;;;5.72;;
81124;SDS011;72192;52.114;5.424;2024-03-17T12:54:13;9.23;;;5.43;;
81124;SDS011;72192;52.114;5.424;2024-03-17T12:56:40;8.15;;;4.70;;
81124;SDS011;72192;52.114;5.424;2024-03-17T12:59:38;10.60;;;5.80;;
81124;SDS011;72192;52.114;5.424;2024-03-17T13:02:26;10.45;;;5.45;;
81124;SDS011;72192;52.114;5.424;2024-03-17T13:08:07;12.52;;;6.05;;
81124;SDS011;72192;52.114;5.424;2024-03-17T13:10:48;9.85;;;5.80;;
81124;SDS011;72192;52.114;5.424;2024-03-17T13:13:29;11.00;;;5.95;;
81124;SDS011;72192;52.114;5.424;2024-03-17T13:16:10;11.15;;;5.60;;
81124;SDS011;72192;52.114;5.424;2024-03-17T13:18:56;10.13;;;5.50;;
81124;SDS011;72192;52.114;5.424;2024-03-17T13:21:46;10.48;;;5.90;;
81124;SDS011;72192;52.114;5.424;2024-03-17T13:28:37;8.82;;;4.68;;
81124;SDS011;72192;52.114;5.424;2024-03-17T13:31:02;9.98;;;5.93;;
81124;SDS011;72192;52.114;5.424;2024-03-17T13:33:29;9.07;;;5.03;;
81124;SDS011;72192;52.114;5.424;2024-03-17T13:35:55;8.77;;;5.55;;
81124;SDS011;72192;52.114;5.424;2024-03-17T13:38:41;10.48;;;5.57;;
81124;SDS011;72192;52.114;5.424;2024-03-17T13:41:07;10.75;;;5.53;;
81124;SDS011;72192;52.114;5.424;2024-03-17T13:43:34;14.90;;;6.13;;
81124;SDS011;72192;52.114;5.424;2024-03-17T13:46:00;7.18;;;4.70;;
81124;SDS011;72192;52.114;5.424;2024-03-17T13:48:25;9.35;;;5.35;;
81124;SDS011;72192;52.114;5.424;2024-03-17T13:50:57;9.65;;;4.68;;
81124;SDS011;72192;52.114;5.424;2024-03-17T13:53:23;11.23;;;5.85;;
81124;SDS011;72192;52.114;5.424;2024-03-17T13:55:49;9.60;;;5.07;;
81124;SDS011;72192;52.114;5.424;2024-03-17T13:58:16;10.93;;;5.20;;
81124;SDS011;72192;52.114;5.424;2024-03-17T14:08:21;10.13;;;5.65;;
81124;SDS011;72192;52.114;5.424;2024-03-17T14:10:47;7.60;;;4.70;;
81124;SDS011;72192;52.114;5.424;2024-03-17T14:13:13;13.60;;;5.68;;
81124;SDS011;72192;52.114;5.424;2024-03-17T14:15:44;10.75;;;5.07;;
81124;SDS011;72192;52.114;5.424;2024-03-17T14:18:10;9.07;;;4.70;;
81124;SDS011;72192;52.114;5.424;2024-03-17T14:20:35;10.13;;;5.25;;
81124;SDS011;72192;52.114;5.424;2024-03-17T14:23:03;9.48;;;5.00;;
81124;SDS011;72192;52.114;5.424;2024-03-17T14:25:29;9.30;;;5.13;;
81124;SDS011;72192;52.114;5.424;2024-03-17T14:27:55;10.75;;;5.63;;
81124;SDS011;72192;52.114;5.424;2024-03-17T14:30:23;9.60;;;5.30;;
81124;SDS011;72192;52.114;5.424;2024-03-17T14:32:49;10.07;;;5.18;;
81124;SDS011;72192;52.114;5.424;2024-03-17T14:35:15;10.77;;;5.15;;
81124;SDS011;72192;52.114;5.424;2024-03-17T14:37:46;10.15;;;5.50;;
81124;SDS011;72192;52.114;5.424;2024-03-17T14:40:17;9.57;;;5.38;;
81124;SDS011;72192;52.114;5.424;2024-03-17T14:42:49;10.75;;;4.93;;
81124;SDS011;72192;52.114;5.424;2024-03-17T14:47:45;9.38;;;4.88;;
81124;SDS011;72192;52.114;5.424;2024-03-17T14:50:11;12.35;;;4.85;;
81124;SDS011;72192;52.114;5.424;2024-03-17T14:52:38;9.77;;;5.07;;
81124;SDS011;72192;52.114;5.424;2024-03-17T14:55:09;7.85;;;4.80;;
81124;SDS011;72192;52.114;5.424;2024-03-17T14:57:39;8.30;;;4.30;;
81124;SDS011;72192;52.114;5.424;2024-03-17T15:00:06;7.97;;;4.35;;
81124;SDS011;72192;52.114;5.424;2024-03-17T15:02:44;8.00;;;4.65;;
81124;SDS011;72192;52.114;5.424;2024-03-17T15:05:14;9.70;;;4.97;;
81124;SDS011;72192;52.114;5.424;2024-03-17T15:10:47;9.25;;;4.40;;
81124;SDS011;72192;52.114;5.424;2024-03-17T15:13:13;9.68;;;5.30;;
81124;SDS011;72192;52.114;5.424;2024-03-17T15:15:40;9.95;;;5.05;;
81124;SDS011;72192;52.114;5.424;2024-03-17T15:18:06;9.27;;;4.70;;
81124;SDS011;72192;52.114;5.424;2024-03-17T15:20:34;8.52;;;5.18;;
81124;SDS011;72192;52.114;5.424;2024-03-17T15:23:00;9.82;;;4.68;;
81124;SDS011;72192;52.114;5.424;2024-03-17T15:25:26;9.98;;;5.07;;
81124;SDS011;72192;52.114;5.424;2024-03-17T15:27:53;8.95;;;4.53;;
81124;SDS011;72192;52.114;5.424;2024-03-17T15:30:19;8.70;;;4.88;;
81124;SDS011;72192;52.114;5.424;2024-03-17T15:32:53;10.23;;;5.25;;
81124;SDS011;72192;52.114;5.424;2024-03-17T15:35:22;9.40;;;4.07;;
81124;SDS011;72192;52.114;5.424;2024-03-17T15:37:48;8.25;;;4.78;;
81124;SDS011;72192;52.114;5.424;2024-03-17T15:40:14;9.68;;;4.72;;
81124;SDS011;72192;52.114;5.424;2024-03-17T15:45:11;9.55;;;4.20;;
81124;SDS011;72192;52.114;5.424;2024-03-17T15:47:41;10.02;;;4.85;;
81124;SDS011;72192;52.114;5.424;2024-03-17T15:50:07;9.07;;;4.95;;
81124;SDS011;72192;52.114;5.424;2024-03-17T15:52:34;9.00;;;4.47;;
81124;SDS011;72192;52.114;5.424;2024-03-17T15:55:07;8.98;;;4.72;;
81124;SDS011;72192;52.114;5.424;2024-03-17T15:57:34;12.68;;;5.80;;